Time;durP1;ratioP1;P1;durP2;ratioP2;P2;SDS_P1;SDS_P2;PMS_P1;PMS_P2;Temp;Humidity;BMP_temperature;BMP_pressure;BME280_temperature;BME280_humidity;BME280_pressure;Samples;Min_cycle;Max_cycle;Signal;HPM_P1;HPM_P2
2023/03/08 00:00:47;;;;;;;27.00;16.40;;;;;;;;;;772386;180;919360;-69
2023/03/08 00:03:12;;;;;;;27.90;16.37;;;;;;;;;;774454;180;919935;-66
2023/03/08 00:05:38;;;;;;;26.87;14.50;;;;;;;;;;774465;181;915785;-65
2023/03/08 00:08:04;;;;;;;21.83;14.80;;;;;;;;;;770892;181;919493;-67
2023/03/08 00:10:30;;;;;;;33.17;17.48;;;;;;;;;;770626;181;919077;-65
2023/03/08 00:12:56;;;;;;;33.33;16.80;;;;;;;;;;772275;182;914637;-66
2023/03/08 00:15:22;;;;;;;26.43;15.90;;;;;;;;;;775716;179;919398;-69
2023/03/08 00:17:48;;;;;;;26.37;16.20;;;;;;;;;;775807;180;819094;-71
2023/03/08 00:20:13;;;;;;;25.10;14.90;;;;;;;;;;779288;180;920565;-65
2023/03/08 00:22:39;;;;;;;31.17;17.73;;;;;;;;;;772731;181;918721;-66
2023/03/08 00:25:06;;;;;;;23.70;14.07;;;;;;;;;;765521;181;1019898;-65
2023/03/08 00:27:31;;;;;;;24.93;14.53;;;;;;;;;;763270;183;920548;-67
2023/03/08 00:29:57;;;;;;;25.80;15.40;;;;;;;;;;769277;183;823762;-66
2023/03/08 00:32:24;;;;;;;30.27;16.77;;;;;;;;;;761683;182;817881;-67
2023/03/08 00:34:50;;;;;;;29.33;17.10;;;;;;;;;;774896;181;918988;-65
2023/03/08 00:37:16;;;;;;;31.27;18.20;;;;;;;;;;777614;180;914333;-65
2023/03/08 00:39:41;;;;;;;29.40;16.40;;;;;;;;;;767048;182;943228;-65
2023/03/08 00:42:07;;;;;;;28.37;15.40;;;;;;;;;;767411;182;916635;-68
2023/03/08 00:44:33;;;;;;;27.80;16.60;;;;;;;;;;772926;182;919049;-65
2023/03/08 00:46:59;;;;;;;26.70;16.00;;;;;;;;;;764950;181;922293;-65
2023/03/08 00:49:25;;;;;;;31.77;17.37;;;;;;;;;;771320;181;918707;-67
2023/03/08 00:51:51;;;;;;;31.40;16.67;;;;;;;;;;770707;181;824740;-67
2023/03/08 00:54:16;;;;;;;24.27;14.90;;;;;;;;;;773613;181;917292;-65
2023/03/08 00:56:42;;;;;;;34.72;17.00;;;;;;;;;;764126;180;918660;-67
2023/03/08 00:59:08;;;;;;;24.03;14.13;;;;;;;;;;767763;182;903017;-69
2023/03/08 01:01:34;;;;;;;22.13;13.07;;;;;;;;;;767890;182;913460;-66
2023/03/08 01:04:00;;;;;;;22.33;14.03;;;;;;;;;;763610;182;909920;-65
2023/03/08 01:06:26;;;;;;;31.43;16.33;;;;;;;;;;771870;181;941620;-68
2023/03/08 01:08:52;;;;;;;26.17;14.37;;;;;;;;;;773228;181;914228;-67
2023/03/08 01:11:18;;;;;;;25.20;14.03;;;;;;;;;;772580;181;920066;-65
2023/03/08 01:13:44;;;;;;;26.90;16.00;;;;;;;;;;773067;181;921184;-65
2023/03/08 01:16:16;;;;;;;26.80;16.13;;;;;;;;;;769480;181;919770;-66
2023/03/08 01:18:42;;;;;;;28.73;15.33;;;;;;;;;;772980;178;917062;-65
2023/03/08 01:21:07;;;;;;;26.77;14.13;;;;;;;;;;766295;180;1021518;-68
2023/03/08 01:23:33;;;;;;;27.93;14.97;;;;;;;;;;772055;181;1015732;-67
2023/03/08 01:26:00;;;;;;;25.60;14.43;;;;;;;;;;770544;181;918556;-67
2023/03/08 01:28:26;;;;;;;25.37;14.10;;;;;;;;;;767048;182;907210;-68
2023/03/08 01:30:52;;;;;;;25.43;14.30;;;;;;;;;;769219;180;912296;-69
2023/03/08 01:33:19;;;;;;;25.17;15.07;;;;;;;;;;771397;180;917193;-66
2023/03/08 01:35:43;;;;;;;30.13;14.83;;;;;;;;;;782070;178;852158;-67
2023/03/08 01:38:09;;;;;;;28.30;16.10;;;;;;;;;;767946;180;1021691;-65
2023/03/08 01:40:35;;;;;;;20.27;12.83;;;;;;;;;;767083;181;814854;-67
2023/03/08 01:43:01;;;;;;;20.10;13.10;;;;;;;;;;774060;179;1020007;-65
2023/03/08 01:45:33;;;;;;;24.57;14.30;;;;;;;;;;773245;181;1010491;-64
2023/03/08 01:47:59;;;;;;;23.40;13.17;;;;;;;;;;773869;181;919563;-68
2023/03/08 01:50:24;;;;;;;26.70;15.13;;;;;;;;;;769456;181;815495;-67
2023/03/08 01:52:50;;;;;;;21.70;13.35;;;;;;;;;;781634;179;919069;-69
2023/03/08 01:55:16;;;;;;;22.27;12.83;;;;;;;;;;771078;180;847264;-66
2023/03/08 01:57:44;;;;;;;24.47;12.67;;;;;;;;;;769886;181;915779;-67
2023/03/08 02:00:09;;;;;;;22.20;13.50;;;;;;;;;;779552;180;919793;-66
2023/03/08 02:02:35;;;;;;;21.17;13.10;;;;;;;;;;772314;181;918621;-65
2023/03/08 02:05:01;;;;;;;19.60;11.70;;;;;;;;;;770940;181;1019799;-65
2023/03/08 02:07:27;;;;;;;21.27;13.30;;;;;;;;;;772617;181;918756;-65
2023/03/08 02:09:53;;;;;;;27.10;13.87;;;;;;;;;;771497;180;921352;-67
2023/03/08 02:12:19;;;;;;;24.90;14.60;;;;;;;;;;768008;182;918880;-66
2023/03/08 02:14:44;;;;;;;22.93;12.80;;;;;;;;;;766414;181;1023035;-67
2023/03/08 02:17:10;;;;;;;23.23;13.63;;;;;;;;;;778706;178;919818;-65
2023/03/08 02:19:38;;;;;;;21.42;12.60;;;;;;;;;;772226;181;920556;-65
2023/03/08 02:22:09;;;;;;;22.20;13.13;;;;;;;;;;767647;182;818632;-67
2023/03/08 02:24:35;;;;;;;23.47;12.20;;;;;;;;;;774442;182;820969;-67
2023/03/08 02:27:00;;;;;;;23.10;11.83;;;;;;;;;;764512;181;919130;-67
2023/03/08 02:29:26;;;;;;;26.20;14.40;;;;;;;;;;764319;182;910141;-65
2023/03/08 02:31:52;;;;;;;20.80;11.75;;;;;;;;;;764684;183;918668;-65
2023/03/08 02:34:18;;;;;;;21.67;13.30;;;;;;;;;;766168;180;817659;-68
2023/03/08 02:36:44;;;;;;;23.23;12.80;;;;;;;;;;769123;181;856120;-67
2023/03/08 02:39:10;;;;;;;26.10;11.90;;;;;;;;;;769800;181;879909;-67
2023/03/08 02:41:35;;;;;;;21.20;12.50;;;;;;;;;;772736;181;919242;-66
2023/03/08 02:44:01;;;;;;;23.53;13.93;;;;;;;;;;765509;183;905844;-68
2023/03/08 02:46:27;;;;;;;25.73;14.30;;;;;;;;;;768921;180;917235;-67
2023/03/08 02:48:53;;;;;;;26.87;13.13;;;;;;;;;;777855;180;919370;-67
2023/03/08 02:51:19;;;;;;;22.07;12.00;;;;;;;;;;767546;181;921969;-65
2023/03/08 02:53:45;;;;;;;24.70;12.67;;;;;;;;;;764740;183;918681;-66
2023/03/08 02:56:10;;;;;;;24.40;13.10;;;;;;;;;;769915;182;919282;-67
2023/03/08 02:58:36;;;;;;;17.60;12.03;;;;;;;;;;762347;181;918884;-67
2023/03/08 03:01:02;;;;;;;22.90;11.63;;;;;;;;;;768551;180;916576;-66
2023/03/08 03:03:30;;;;;;;19.90;11.83;;;;;;;;;;771125;180;919175;-66
2023/03/08 03:05:54;;;;;;;16.43;10.70;;;;;;;;;;778406;181;919407;-65
2023/03/08 03:08:20;;;;;;;21.50;10.63;;;;;;;;;;774784;181;917535;-66
2023/03/08 03:10:46;;;;;;;20.42;11.82;;;;;;;;;;769006;181;919453;-66
2023/03/08 03:13:11;;;;;;;18.80;9.40;;;;;;;;;;778061;180;915768;-66
2023/03/08 03:15:38;;;;;;;18.10;9.33;;;;;;;;;;770396;180;921115;-68
2023/03/08 03:18:04;;;;;;;20.75;11.70;;;;;;;;;;768924;181;919174;-67
2023/03/08 03:20:29;;;;;;;22.20;10.20;;;;;;;;;;769411;182;1022921;-64
2023/03/08 03:22:55;;;;;;;19.25;11.00;;;;;;;;;;770128;180;917987;-69
2023/03/08 03:25:21;;;;;;;16.40;9.60;;;;;;;;;;767791;181;917117;-66
2023/03/08 03:27:46;;;;;;;17.17;9.77;;;;;;;;;;763643;180;935710;-67
2023/03/08 03:30:12;;;;;;;18.60;11.38;;;;;;;;;;779532;181;919730;-67
2023/03/08 03:32:38;;;;;;;20.10;9.80;;;;;;;;;;765467;182;918995;-65
2023/03/08 03:35:04;;;;;;;19.30;9.90;;;;;;;;;;765660;180;918006;-67
2023/03/08 03:37:30;;;;;;;17.50;9.43;;;;;;;;;;778595;180;919393;-65
2023/03/08 03:39:56;;;;;;;16.23;10.60;;;;;;;;;;772528;181;819968;-65
2023/03/08 03:42:22;;;;;;;17.97;9.30;;;;;;;;;;766337;182;919008;-67
2023/03/08 03:44:48;;;;;;;16.30;9.50;;;;;;;;;;775923;181;917750;-67
2023/03/08 03:47:14;;;;;;;16.00;9.07;;;;;;;;;;771548;181;917579;-66
2023/03/08 03:49:39;;;;;;;12.20;8.77;;;;;;;;;;773758;179;918294;-67
2023/03/08 03:52:05;;;;;;;16.07;9.53;;;;;;;;;;771178;180;919418;-67
2023/03/08 03:54:31;;;;;;;13.00;8.00;;;;;;;;;;773738;181;922197;-67
2023/03/08 03:56:59;;;;;;;13.13;7.50;;;;;;;;;;767128;181;920248;-65
2023/03/08 03:59:24;;;;;;;12.93;8.13;;;;;;;;;;769902;180;1021513;-66
2023/03/08 04:01:49;;;;;;;14.27;9.20;;;;;;;;;;775049;181;919646;-65
2023/03/08 04:04:15;;;;;;;12.10;8.30;;;;;;;;;;765098;182;923434;-68
2023/03/08 04:06:41;;;;;;;14.90;9.33;;;;;;;;;;768302;181;919154;-65
2023/03/08 04:09:07;;;;;;;19.00;9.60;;;;;;;;;;779243;181;918983;-67
2023/03/08 04:11:33;;;;;;;13.97;8.40;;;;;;;;;;775205;181;918326;-65
2023/03/08 04:13:59;;;;;;;16.20;8.30;;;;;;;;;;776413;181;819159;-67
2023/03/08 04:16:26;;;;;;;15.63;8.83;;;;;;;;;;767589;181;921809;-65
2023/03/08 04:18:52;;;;;;;13.53;8.43;;;;;;;;;;773484;179;918899;-65
2023/03/08 04:21:18;;;;;;;15.80;9.80;;;;;;;;;;767589;179;918589;-68
2023/03/08 04:23:43;;;;;;;13.37;8.03;;;;;;;;;;772483;180;919740;-66
2023/03/08 04:26:09;;;;;;;11.30;6.50;;;;;;;;;;780038;181;916479;-67
2023/03/08 04:28:35;;;;;;;10.70;8.07;;;;;;;;;;761206;182;812668;-67
2023/03/08 04:31:07;;;;;;;14.37;8.20;;;;;;;;;;763226;181;888448;-66
2023/03/08 04:33:33;;;;;;;12.67;8.20;;;;;;;;;;773281;181;922376;-67
2023/03/08 04:35:58;;;;;;;12.53;7.90;;;;;;;;;;775949;178;921841;-66
2023/03/08 04:38:24;;;;;;;13.93;7.60;;;;;;;;;;757291;184;917581;-66
2023/03/08 04:43:22;;;;;;;12.93;7.60;;;;;;;;;;774105;182;919219;-66
2023/03/08 04:45:48;;;;;;;10.53;7.07;;;;;;;;;;775330;181;918936;-67
2023/03/08 04:48:13;;;;;;;10.43;7.07;;;;;;;;;;773615;181;915758;-65
2023/03/08 04:50:40;;;;;;;14.38;7.45;;;;;;;;;;772973;180;847212;-66
2023/03/08 04:53:07;;;;;;;12.23;7.50;;;;;;;;;;763885;183;819652;-68
2023/03/08 04:55:31;;;;;;;10.80;6.70;;;;;;;;;;766476;180;918645;-67
2023/03/08 04:57:57;;;;;;;9.55;5.70;;;;;;;;;;769830;181;918876;-68
2023/03/08 05:00:23;;;;;;;13.23;6.67;;;;;;;;;;775692;181;918105;-65
2023/03/08 05:02:49;;;;;;;13.93;7.90;;;;;;;;;;776481;179;904545;-67
2023/03/08 05:05:15;;;;;;;10.30;6.40;;;;;;;;;;772029;180;973316;-66
2023/03/08 05:07:41;;;;;;;10.97;6.37;;;;;;;;;;776469;181;1037629;-66
2023/03/08 05:10:07;;;;;;;10.93;6.63;;;;;;;;;;772399;181;919196;-68
2023/03/08 05:12:33;;;;;;;10.97;6.77;;;;;;;;;;770951;181;921512;-66
2023/03/08 05:14:59;;;;;;;11.90;7.13;;;;;;;;;;771936;180;919021;-68
2023/03/08 05:17:24;;;;;;;10.10;6.83;;;;;;;;;;772592;181;833283;-66
2023/03/08 05:19:50;;;;;;;13.40;6.90;;;;;;;;;;767349;181;920901;-67
2023/03/08 05:22:16;;;;;;;9.77;6.63;;;;;;;;;;770346;179;938247;-67
2023/03/08 05:24:42;;;;;;;9.57;6.67;;;;;;;;;;777134;181;913762;-67
2023/03/08 05:27:08;;;;;;;10.70;5.90;;;;;;;;;;769872;181;919954;-67
2023/03/08 05:29:36;;;;;;;10.30;6.23;;;;;;;;;;770569;181;1023172;-65
2023/03/08 05:32:01;;;;;;;9.17;5.87;;;;;;;;;;779346;180;816098;-63
2023/03/08 05:34:25;;;;;;;11.20;6.07;;;;;;;;;;761032;180;920998;-68
2023/03/08 05:36:51;;;;;;;12.27;5.87;;;;;;;;;;763244;181;918986;-66
2023/03/08 05:39:17;;;;;;;14.30;7.20;;;;;;;;;;781789;180;638512;-68
2023/03/08 05:41:43;;;;;;;18.80;7.20;;;;;;;;;;776918;181;621626;-67
2023/03/08 05:44:09;;;;;;;10.90;6.47;;;;;;;;;;773917;181;917288;-66
2023/03/08 05:46:37;;;;;;;10.13;6.30;;;;;;;;;;771066;181;816700;-68
2023/03/08 05:49:00;;;;;;;9.27;5.50;;;;;;;;;;777394;181;614980;-66
2023/03/08 05:51:26;;;;;;;8.97;6.10;;;;;;;;;;768628;181;917600;-65
2023/03/08 05:53:52;;;;;;;9.63;6.03;;;;;;;;;;767913;181;918687;-67
2023/03/08 05:56:18;;;;;;;11.30;6.10;;;;;;;;;;771106;182;844773;-67
2023/03/08 05:58:44;;;;;;;12.02;7.30;;;;;;;;;;771371;180;919911;-67
2023/03/08 06:01:11;;;;;;;11.20;6.50;;;;;;;;;;766019;181;912225;-66
2023/03/08 06:03:36;;;;;;;12.57;6.70;;;;;;;;;;773534;179;916633;-68
2023/03/08 06:06:02;;;;;;;11.27;6.43;;;;;;;;;;770670;181;817760;-66
2023/03/08 06:08:28;;;;;;;16.33;6.40;;;;;;;;;;771701;181;918499;-69
2023/03/08 06:10:54;;;;;;;10.63;6.73;;;;;;;;;;769351;180;919924;-68
2023/03/08 06:13:20;;;;;;;9.53;5.93;;;;;;;;;;772532;179;903544;-68
2023/03/08 06:15:46;;;;;;;10.27;5.90;;;;;;;;;;769900;181;919408;-65
2023/03/08 06:18:12;;;;;;;12.63;5.70;;;;;;;;;;773767;180;781630;-65
2023/03/08 06:20:37;;;;;;;9.23;5.87;;;;;;;;;;778452;181;912721;-66
2023/03/08 06:23:03;;;;;;;10.07;5.40;;;;;;;;;;772635;180;918774;-65
2023/03/08 06:25:29;;;;;;;11.52;6.60;;;;;;;;;;767167;180;1018803;-65
2023/03/08 06:27:55;;;;;;;10.77;6.30;;;;;;;;;;774823;181;812191;-66
2023/03/08 06:30:21;;;;;;;9.40;6.10;;;;;;;;;;770730;180;950870;-66
2023/03/08 06:32:47;;;;;;;9.97;5.37;;;;;;;;;;771565;181;919927;-68
2023/03/08 06:35:13;;;;;;;12.70;5.82;;;;;;;;;;777250;181;920215;-66
2023/03/08 06:37:39;;;;;;;11.47;6.30;;;;;;;;;;774005;178;816914;-65
2023/03/08 06:40:07;;;;;;;10.73;6.10;;;;;;;;;;770184;181;867717;-66
2023/03/08 06:42:31;;;;;;;9.83;5.40;;;;;;;;;;772847;181;816201;-66
2023/03/08 06:44:57;;;;;;;12.93;6.50;;;;;;;;;;771886;180;1025205;-69
2023/03/08 06:47:23;;;;;;;10.87;6.67;;;;;;;;;;770338;181;1021173;-68
2023/03/08 06:49:49;;;;;;;11.67;5.67;;;;;;;;;;767890;181;911467;-68
2023/03/08 06:52:15;;;;;;;10.50;5.97;;;;;;;;;;774302;180;917181;-66
2023/03/08 06:54:40;;;;;;;11.83;6.50;;;;;;;;;;770528;180;919821;-65
2023/03/08 06:57:06;;;;;;;12.90;6.30;;;;;;;;;;771195;180;919140;-66
2023/03/08 06:59:32;;;;;;;14.13;5.30;;;;;;;;;;775102;180;813780;-65
2023/03/08 07:01:58;;;;;;;12.73;6.40;;;;;;;;;;770284;181;893771;-65
2023/03/08 07:04:24;;;;;;;9.57;5.57;;;;;;;;;;770650;181;716537;-66
2023/03/08 07:06:50;;;;;;;8.23;4.60;;;;;;;;;;768807;182;917145;-66
2023/03/08 07:09:15;;;;;;;8.00;5.10;;;;;;;;;;776558;181;919081;-65
2023/03/08 07:11:42;;;;;;;9.50;5.73;;;;;;;;;;769961;181;918732;-65
2023/03/08 07:14:07;;;;;;;11.47;6.03;;;;;;;;;;768076;181;819237;-68
2023/03/08 07:16:33;;;;;;;9.00;5.43;;;;;;;;;;774398;181;743905;-68
2023/03/08 07:18:59;;;;;;;11.45;7.22;;;;;;;;;;765840;181;918238;-66
2023/03/08 07:21:25;;;;;;;14.73;6.50;;;;;;;;;;767449;181;919171;-65
2023/03/08 07:23:51;;;;;;;11.17;6.67;;;;;;;;;;777807;180;815351;-65
2023/03/08 07:26:16;;;;;;;10.20;5.93;;;;;;;;;;776072;179;907583;-66
2023/03/08 07:28:42;;;;;;;12.00;5.80;;;;;;;;;;769647;181;920016;-68
2023/03/08 07:31:09;;;;;;;9.77;6.53;;;;;;;;;;773211;180;918242;-68
2023/03/08 07:33:35;;;;;;;8.17;4.90;;;;;;;;;;768452;179;922524;-64
2023/03/08 07:36:01;;;;;;;13.20;6.67;;;;;;;;;;765981;180;1021887;-68
2023/03/08 07:38:26;;;;;;;8.80;4.57;;;;;;;;;;765064;181;916687;-67
2023/03/08 07:40:53;;;;;;;8.23;5.27;;;;;;;;;;772506;181;813151;-65
2023/03/08 07:43:19;;;;;;;12.90;7.60;;;;;;;;;;766306;180;918854;-65
2023/03/08 07:45:45;;;;;;;7.60;4.53;;;;;;;;;;767111;179;921468;-68
2023/03/08 07:48:11;;;;;;;9.63;5.57;;;;;;;;;;772683;181;910941;-65
2023/03/08 07:50:36;;;;;;;12.30;7.00;;;;;;;;;;771485;181;817108;-66
2023/03/08 07:53:03;;;;;;;13.30;7.40;;;;;;;;;;772801;180;918165;-65
2023/03/08 07:55:28;;;;;;;11.70;5.50;;;;;;;;;;772085;180;920668;-67
2023/03/08 07:57:54;;;;;;;12.27;6.63;;;;;;;;;;760363;182;826681;-70
2023/03/08 08:00:20;;;;;;;12.13;6.70;;;;;;;;;;768479;181;801948;-68
2023/03/08 08:02:46;;;;;;;12.63;6.57;;;;;;;;;;770896;180;823491;-68
2023/03/08 08:05:12;;;;;;;9.30;5.53;;;;;;;;;;773285;181;849569;-68
2023/03/08 08:07:38;;;;;;;9.70;6.30;;;;;;;;;;771549;181;687757;-68
2023/03/08 08:10:04;;;;;;;11.63;5.77;;;;;;;;;;771734;181;813370;-66
2023/03/08 08:12:30;;;;;;;11.07;6.40;;;;;;;;;;775530;180;697590;-70
2023/03/08 08:14:58;;;;;;;10.17;6.53;;;;;;;;;;770103;181;813066;-68
2023/03/08 08:17:22;;;;;;;10.70;7.00;;;;;;;;;;768697;180;916532;-69
2023/03/08 08:19:48;;;;;;;10.55;7.00;;;;;;;;;;771767;180;955753;-66
2023/03/08 08:22:14;;;;;;;12.60;7.30;;;;;;;;;;777613;179;919271;-68
2023/03/08 08:24:39;;;;;;;10.60;6.50;;;;;;;;;;772414;181;918680;-70
2023/03/08 08:27:05;;;;;;;15.73;7.15;;;;;;;;;;773030;180;918373;-69
2023/03/08 08:29:31;;;;;;;9.40;5.97;;;;;;;;;;777371;180;712932;-66
2023/03/08 08:31:57;;;;;;;10.37;7.20;;;;;;;;;;768218;180;918955;-69
2023/03/08 08:34:23;;;;;;;11.07;6.00;;;;;;;;;;769850;181;918669;-68
2023/03/08 08:36:49;;;;;;;10.43;6.17;;;;;;;;;;777674;180;919021;-65
2023/03/08 08:39:14;;;;;;;11.90;7.40;;;;;;;;;;767947;182;1024684;-65
2023/03/08 08:41:40;;;;;;;11.00;6.70;;;;;;;;;;773558;179;1018516;-66
2023/03/08 08:44:07;;;;;;;11.90;8.00;;;;;;;;;;776665;180;912336;-66
2023/03/08 08:46:33;;;;;;;12.37;7.10;;;;;;;;;;769040;181;920626;-67
2023/03/08 08:48:59;;;;;;;16.63;7.53;;;;;;;;;;770106;179;917274;-66
2023/03/08 08:51:24;;;;;;;11.37;7.60;;;;;;;;;;770678;180;920572;-69
2023/03/08 08:53:51;;;;;;;16.03;8.07;;;;;;;;;;776499;181;885873;-64
2023/03/08 08:56:16;;;;;;;14.10;7.90;;;;;;;;;;770377;181;915043;-66
2023/03/08 08:58:42;;;;;;;10.00;7.10;;;;;;;;;;770798;180;918759;-68
2023/03/08 09:01:15;;;;;;;10.32;5.97;;;;;;;;;;772563;181;917659;-66
2023/03/08 09:03:41;;;;;;;9.60;6.40;;;;;;;;;;770340;181;918232;-65
2023/03/08 09:06:06;;;;;;;11.97;7.70;;;;;;;;;;773549;181;938528;-69
2023/03/08 09:08:32;;;;;;;8.80;6.13;;;;;;;;;;770712;181;918383;-69
2023/03/08 09:10:58;;;;;;;12.20;7.23;;;;;;;;;;775362;181;916372;-66
2023/03/08 09:13:25;;;;;;;11.07;7.37;;;;;;;;;;768508;181;1019353;-70
2023/03/08 09:15:51;;;;;;;12.00;6.93;;;;;;;;;;768215;181;920054;-66
2023/03/08 09:18:17;;;;;;;10.50;6.73;;;;;;;;;;775940;181;916552;-67
2023/03/08 09:20:42;;;;;;;10.10;7.40;;;;;;;;;;769643;181;915639;-70
2023/03/08 09:23:09;;;;;;;11.97;7.50;;;;;;;;;;768929;179;924180;-66
2023/03/08 09:25:34;;;;;;;9.33;6.80;;;;;;;;;;774729;180;908505;-66
2023/03/08 09:28:00;;;;;;;12.77;6.70;;;;;;;;;;770594;181;819699;-66
2023/03/08 09:30:28;;;;;;;10.90;7.30;;;;;;;;;;767616;181;917487;-66
2023/03/08 09:32:52;;;;;;;10.97;7.10;;;;;;;;;;767192;181;919494;-68
2023/03/08 09:35:18;;;;;;;10.77;6.87;;;;;;;;;;776190;181;912203;-68
2023/03/08 09:37:44;;;;;;;9.43;6.50;;;;;;;;;;772014;180;815310;-69
2023/03/08 09:40:11;;;;;;;11.60;6.77;;;;;;;;;;770013;181;918360;-66
2023/03/08 09:42:37;;;;;;;9.90;6.47;;;;;;;;;;774021;181;814126;-69
2023/03/08 09:45:09;;;;;;;10.00;7.05;;;;;;;;;;770408;180;813524;-70
2023/03/08 09:47:51;;;;;;;10.20;6.70;;;;;;;;;;774875;179;919085;-66
2023/03/08 09:50:19;;;;;;;9.07;6.23;;;;;;;;;;774517;180;958947;-69
2023/03/08 09:52:47;;;;;;;12.43;6.93;;;;;;;;;;767369;180;871343;-66
2023/03/08 09:55:16;;;;;;;11.57;6.83;;;;;;;;;;777158;180;871071;-69
2023/03/08 09:57:44;;;;;;;9.63;5.90;;;;;;;;;;773315;180;923023;-69
2023/03/08 10:00:10;;;;;;;9.30;6.80;;;;;;;;;;774414;181;815480;-65
2023/03/08 10:02:39;;;;;;;11.63;6.73;;;;;;;;;;770350;179;920670;-68
2023/03/08 10:05:05;;;;;;;11.03;6.80;;;;;;;;;;773766;179;916102;-68
2023/03/08 10:07:34;;;;;;;11.60;7.67;;;;;;;;;;768161;181;916259;-69
2023/03/08 10:10:00;;;;;;;9.50;7.60;;;;;;;;;;769322;181;917337;-69
2023/03/08 10:12:28;;;;;;;9.70;6.30;;;;;;;;;;776319;181;918191;-66
2023/03/08 10:14:52;;;;;;;10.13;6.60;;;;;;;;;;767945;181;919173;-69
2023/03/08 10:17:18;;;;;;;13.60;6.73;;;;;;;;;;765530;181;910332;-69
2023/03/08 10:19:45;;;;;;;10.40;6.40;;;;;;;;;;768392;182;919307;-68
2023/03/08 10:22:20;;;;;;;12.20;8.10;;;;;;;;;;774733;181;916462;-66
2023/03/08 10:24:47;;;;;;;13.83;8.30;;;;;;;;;;769169;180;918945;-69
2023/03/08 10:27:15;;;;;;;10.80;6.37;;;;;;;;;;766992;181;919351;-66
2023/03/08 10:29:42;;;;;;;11.43;7.07;;;;;;;;;;769083;179;816359;-66
2023/03/08 10:32:07;;;;;;;9.50;6.63;;;;;;;;;;774118;179;916808;-70
2023/03/08 10:34:33;;;;;;;14.30;7.50;;;;;;;;;;767654;179;919630;-68
2023/03/08 10:36:59;;;;;;;8.93;6.13;;;;;;;;;;772903;181;886991;-69
2023/03/08 10:39:25;;;;;;;11.13;7.20;;;;;;;;;;774536;181;903463;-65
2023/03/08 10:41:51;;;;;;;8.00;5.90;;;;;;;;;;769005;181;919293;-70
2023/03/08 10:44:22;;;;;;;9.60;6.47;;;;;;;;;;765279;180;918363;-67
2023/03/08 10:46:48;;;;;;;9.80;6.10;;;;;;;;;;768303;179;919678;-66
2023/03/08 10:49:15;;;;;;;11.27;6.30;;;;;;;;;;771904;181;918781;-70
2023/03/08 10:51:41;;;;;;;10.33;7.23;;;;;;;;;;769924;181;919093;-69
2023/03/08 10:54:06;;;;;;;9.27;6.23;;;;;;;;;;772622;180;918928;-67
2023/03/08 10:56:33;;;;;;;7.93;6.00;;;;;;;;;;775406;180;777157;-67
2023/03/08 10:58:59;;;;;;;14.80;6.73;;;;;;;;;;769121;179;919411;-66
2023/03/08 11:01:25;;;;;;;11.47;6.63;;;;;;;;;;769556;180;817659;-70
2023/03/08 11:03:58;;;;;;;11.15;7.07;;;;;;;;;;775591;180;821054;-68
2023/03/08 11:06:24;;;;;;;11.37;6.20;;;;;;;;;;774983;179;815774;-69
2023/03/08 11:08:51;;;;;;;9.30;5.80;;;;;;;;;;771718;180;915278;-67
2023/03/08 11:11:17;;;;;;;9.70;4.97;;;;;;;;;;770825;180;817419;-66
2023/03/08 11:13:45;;;;;;;9.03;6.27;;;;;;;;;;778697;180;813260;-68
2023/03/08 11:16:29;;;;;;;11.70;7.60;;;;;;;;;;773069;180;834429;-68
2023/03/08 11:18:57;;;;;;;9.40;6.33;;;;;;;;;;770197;182;831357;-66
2023/03/08 11:21:25;;;;;;;8.87;5.13;;;;;;;;;;764637;181;716390;-66
2023/03/08 11:23:55;;;;;;;8.80;6.00;;;;;;;;;;773127;181;926134;-71
2023/03/08 11:26:23;;;;;;;9.40;6.00;;;;;;;;;;772674;180;940196;-68
2023/03/08 11:28:48;;;;;;;9.43;6.30;;;;;;;;;;769297;180;917352;-67
2023/03/08 11:31:15;;;;;;;9.77;6.10;;;;;;;;;;769845;181;901300;-68
2023/03/08 11:33:42;;;;;;;8.70;5.57;;;;;;;;;;767838;179;919097;-68
2023/03/08 11:36:10;;;;;;;9.37;5.13;;;;;;;;;;771343;181;913241;-66
2023/03/08 11:38:36;;;;;;;11.30;6.47;;;;;;;;;;768582;181;920604;-68
2023/03/08 11:41:06;;;;;;;9.93;6.60;;;;;;;;;;772179;181;634552;-68
2023/03/08 11:43:36;;;;;;;9.47;6.70;;;;;;;;;;768290;181;920399;-66
2023/03/08 11:46:02;;;;;;;10.50;7.00;;;;;;;;;;770039;181;917556;-66
2023/03/08 11:48:29;;;;;;;8.70;5.80;;;;;;;;;;766992;181;830631;-67
2023/03/08 11:50:56;;;;;;;11.83;7.30;;;;;;;;;;770562;181;868455;-65
2023/03/08 11:53:22;;;;;;;9.57;5.43;;;;;;;;;;772038;181;1036998;-68
2023/03/08 11:55:50;;;;;;;12.10;7.00;;;;;;;;;;771570;180;918706;-69
2023/03/08 11:58:31;;;;;;;12.43;7.13;;;;;;;;;;770993;180;918090;-70
2023/03/08 12:00:56;;;;;;;8.57;6.00;;;;;;;;;;767727;181;1017876;-69
2023/03/08 12:03:23;;;;;;;11.57;6.60;;;;;;;;;;773576;180;849193;-68
2023/03/08 12:05:52;;;;;;;9.10;6.47;;;;;;;;;;774225;181;712873;-68
2023/03/08 12:08:19;;;;;;;17.90;6.93;;;;;;;;;;770148;181;829200;-66
2023/03/08 12:10:46;;;;;;;11.97;6.67;;;;;;;;;;772280;180;715648;-66
2023/03/08 12:13:26;;;;;;;13.20;5.97;;;;;;;;;;774451;180;917559;-65
2023/03/08 12:15:54;;;;;;;9.30;5.97;;;;;;;;;;766852;180;815722;-69
2023/03/08 12:18:20;;;;;;;11.90;6.90;;;;;;;;;;770956;180;908458;-68
2023/03/08 12:20:46;;;;;;;12.63;7.03;;;;;;;;;;771815;181;919195;-68
2023/03/08 12:23:27;;;;;;;11.53;5.90;;;;;;;;;;769124;181;926653;-66
2023/03/08 12:26:03;;;;;;;10.52;5.78;;;;;;;;;;773188;177;864364;-68
2023/03/08 12:28:29;;;;;;;9.50;5.87;;;;;;;;;;761808;183;918374;-67
2023/03/08 12:30:59;;;;;;;9.87;6.00;;;;;;;;;;767558;180;919195;-66
2023/03/08 12:33:25;;;;;;;9.20;5.50;;;;;;;;;;770891;180;919611;-66
2023/03/08 12:35:51;;;;;;;10.17;6.57;;;;;;;;;;770460;181;920229;-68
2023/03/08 12:38:27;;;;;;;11.67;6.03;;;;;;;;;;771595;181;946390;-68
2023/03/08 12:40:53;;;;;;;10.10;6.13;;;;;;;;;;769384;181;914673;-66
2023/03/08 12:43:34;;;;;;;12.60;6.77;;;;;;;;;;771350;180;922334;-66
2023/03/08 12:46:01;;;;;;;13.57;7.63;;;;;;;;;;774552;180;761853;-69
2023/03/08 12:48:30;;;;;;;9.00;6.57;;;;;;;;;;768646;180;917962;-68
2023/03/08 12:50:56;;;;;;;10.73;6.20;;;;;;;;;;771844;177;922343;-66
2023/03/08 12:53:24;;;;;;;9.87;6.20;;;;;;;;;;767281;181;919317;-68
2023/03/08 12:55:55;;;;;;;10.90;7.00;;;;;;;;;;769606;181;921329;-66
2023/03/08 12:58:21;;;;;;;12.37;6.87;;;;;;;;;;768420;180;920874;-66
2023/03/08 13:00:47;;;;;;;7.00;5.17;;;;;;;;;;759979;183;917045;-66
2023/03/08 13:03:28;;;;;;;10.60;6.20;;;;;;;;;;770915;180;916878;-68
2023/03/08 13:05:55;;;;;;;12.00;7.40;;;;;;;;;;772003;181;924364;-67
2023/03/08 13:08:22;;;;;;;11.97;6.83;;;;;;;;;;771859;181;820207;-66
2023/03/08 13:11:04;;;;;;;10.67;6.30;;;;;;;;;;775896;181;815885;-68
2023/03/08 13:13:36;;;;;;;11.10;6.37;;;;;;;;;;776548;179;808968;-68
2023/03/08 13:16:07;;;;;;;7.93;5.73;;;;;;;;;;767895;181;1021314;-66
2023/03/08 13:18:35;;;;;;;13.00;6.50;;;;;;;;;;768994;180;919194;-68
2023/03/08 13:21:02;;;;;;;9.10;5.67;;;;;;;;;;770431;181;891478;-66
2023/03/08 13:23:28;;;;;;;9.30;6.17;;;;;;;;;;779348;179;870780;-69
2023/03/08 13:26:08;;;;;;;10.23;5.93;;;;;;;;;;772725;180;860745;-69
2023/03/08 13:28:34;;;;;;;12.03;7.33;;;;;;;;;;764305;180;919124;-66
2023/03/08 13:31:00;;;;;;;13.00;6.72;;;;;;;;;;767651;181;815831;-67
2023/03/08 13:33:27;;;;;;;11.20;6.27;;;;;;;;;;777825;181;816748;-68
2023/03/08 13:35:53;;;;;;;10.53;6.10;;;;;;;;;;766950;181;919361;-70
2023/03/08 13:38:18;;;;;;;10.03;6.40;;;;;;;;;;771490;180;920293;-66
2023/03/08 13:40:44;;;;;;;9.20;5.47;;;;;;;;;;771214;181;818337;-69
2023/03/08 13:43:10;;;;;;;9.23;5.60;;;;;;;;;;775575;181;816996;-66
2023/03/08 13:45:36;;;;;;;11.53;7.10;;;;;;;;;;768675;181;917697;-65
2023/03/08 13:48:02;;;;;;;9.10;6.47;;;;;;;;;;773460;181;919211;-68
2023/03/08 13:50:32;;;;;;;9.67;5.10;;;;;;;;;;777007;181;816613;-67
2023/03/08 13:52:57;;;;;;;10.90;8.33;;;;;;;;;;771877;180;717862;-68
2023/03/08 13:55:27;;;;;;;7.20;4.97;;;;;;;;;;772973;179;918335;-68
2023/03/08 13:57:54;;;;;;;8.30;4.87;;;;;;;;;;769748;179;815863;-66
2023/03/08 14:00:22;;;;;;;8.83;5.47;;;;;;;;;;771074;181;912949;-68
2023/03/08 14:02:48;;;;;;;11.03;5.40;;;;;;;;;;771502;180;754356;-66
2023/03/08 14:05:15;;;;;;;9.90;5.73;;;;;;;;;;770522;180;813651;-69
2023/03/08 14:07:41;;;;;;;8.13;4.93;;;;;;;;;;774500;180;918770;-69
2023/03/08 14:10:07;;;;;;;7.57;4.60;;;;;;;;;;767843;180;915084;-67
2023/03/08 14:12:32;;;;;;;11.33;6.80;;;;;;;;;;768673;180;919262;-66
2023/03/08 14:14:58;;;;;;;9.73;5.40;;;;;;;;;;768265;180;916852;-66